createdAt,value
2017-11-10T00:00:10.827Z,7.80
2017-11-10T00:01:13.404Z,7.80
2017-11-10T00:02:16.106Z,7.80
2017-11-10T00:03:18.629Z,7.80
2017-11-10T00:04:22.061Z,7.70
2017-11-10T00:05:24.578Z,7.70
2017-11-10T00:06:28.021Z,7.70
2017-11-10T00:07:30.541Z,7.70
2017-11-10T00:08:33.067Z,7.70
2017-11-10T00:09:36.326Z,7.70
2017-11-10T00:10:39.003Z,7.70
2017-11-10T00:11:41.521Z,7.70
2017-11-10T00:12:44.051Z,7.70
2017-11-10T00:13:47.327Z,7.70
2017-11-10T00:14:49.990Z,7.70
2017-11-10T00:15:52.515Z,7.70
2017-11-10T00:16:55.014Z,7.70
2017-11-10T00:17:57.498Z,7.70
2017-11-10T00:19:00.983Z,7.70
2017-11-10T00:20:03.464Z,7.70
2017-11-10T00:21:06.013Z,7.70
2017-11-10T00:22:09.368Z,7.80
2017-11-10T00:23:11.994Z,7.80
2017-11-10T00:24:15.284Z,7.80
2017-11-10T00:25:18.549Z,7.90
2017-11-10T00:26:21.046Z,7.90
2017-11-10T00:27:23.669Z,7.90
2017-11-10T00:28:26.173Z,7.90
2017-11-10T00:29:29.977Z,7.90
2017-11-10T00:30:32.452Z,7.90
2017-11-10T00:31:35.225Z,7.90
2017-11-10T00:32:37.710Z,7.90
2017-11-10T00:33:40.180Z,7.90
2017-11-10T00:34:42.709Z,7.90
2017-11-10T00:35:45.232Z,7.90
2017-11-10T00:36:50.201Z,7.90
2017-11-10T00:37:52.698Z,7.90
2017-11-10T00:38:55.194Z,7.90
2017-11-10T00:39:58.658Z,8.00
2017-11-10T00:41:01.133Z,7.90
2017-11-10T00:42:05.193Z,8.00
2017-11-10T00:43:07.684Z,8.00
2017-11-10T00:44:10.267Z,8.00
2017-11-10T00:45:12.784Z,7.90
2017-11-10T00:46:15.289Z,7.90
2017-11-10T00:47:17.762Z,7.90
2017-11-10T00:48:21.853Z,7.90
2017-11-10T00:49:24.382Z,7.90
2017-11-10T00:50:26.906Z,7.90
2017-11-10T00:51:30.169Z,7.90
2017-11-10T00:52:33.157Z,7.90
2017-11-10T00:53:36.398Z,7.90
2017-11-10T00:54:39.097Z,7.90
2017-11-10T00:55:41.602Z,7.90
2017-11-10T00:56:45.064Z,7.90
2017-11-10T00:57:49.074Z,7.90
2017-11-10T00:58:51.654Z,7.90
2017-11-10T00:59:54.918Z,7.90
2017-11-10T01:00:57.597Z,7.80
2017-11-10T01:02:00.854Z,7.90
2017-11-10T01:03:03.527Z,7.90
2017-11-10T01:04:06.013Z,7.90
2017-11-10T01:05:09.479Z,7.90
2017-11-10T01:06:12.020Z,7.90
2017-11-10T01:07:14.578Z,7.90
2017-11-10T01:08:17.055Z,7.90
2017-11-10T01:09:19.538Z,7.90
2017-11-10T01:10:22.053Z,7.90
2017-11-10T01:11:25.494Z,7.90
2017-11-10T01:12:27.975Z,7.90
2017-11-10T01:13:30.536Z,7.90
2017-11-10T01:14:33.037Z,7.90
2017-11-10T01:15:36.492Z,7.80
2017-11-10T01:16:40.499Z,7.90
2017-11-10T01:17:43.967Z,7.90
2017-11-10T01:18:46.479Z,7.90
2017-11-10T01:19:49.921Z,7.90
2017-11-10T01:20:52.396Z,7.90
2017-11-10T01:21:56.488Z,7.90
2017-11-10T01:22:59.869Z,7.90
2017-11-10T01:24:02.689Z,7.90
2017-11-10T01:25:06.573Z,7.90
2017-11-10T01:26:10.230Z,7.90
2017-11-10T01:27:13.049Z,7.90
2017-11-10T01:28:16.485Z,7.90
2017-11-10T01:29:18.975Z,7.90
2017-11-10T01:30:21.586Z,7.90
2017-11-10T01:31:24.081Z,7.90
2017-11-10T01:32:26.562Z,7.90
2017-11-10T01:33:29.035Z,7.90
2017-11-10T01:34:33.125Z,7.90
2017-11-10T01:35:35.763Z,7.90
2017-11-10T01:36:38.485Z,8.00
2017-11-10T01:37:40.962Z,8.00
2017-11-10T01:38:44.402Z,8.00
2017-11-10T01:39:46.887Z,8.00
2017-11-10T01:40:50.255Z,8.00
2017-11-10T01:41:53.174Z,8.00
2017-11-10T01:42:55.849Z,8.00
2017-11-10T01:43:59.095Z,8.10
2017-11-10T01:45:01.677Z,8.10
2017-11-10T01:46:05.681Z,8.00
2017-11-10T01:47:09.176Z,8.00
2017-11-10T01:48:14.520Z,8.00
2017-11-10T01:49:19.644Z,8.00
2017-11-10T01:50:22.886Z,8.00
2017-11-10T01:51:25.384Z,8.00
2017-11-10T01:52:27.867Z,8.00
2017-11-10T01:53:31.334Z,8.00
2017-11-10T01:54:34.577Z,8.00
2017-11-10T01:55:37.286Z,8.00
2017-11-10T01:56:39.820Z,8.00
2017-11-10T01:57:42.347Z,8.00
2017-11-10T01:58:45.605Z,7.90
2017-11-10T01:59:48.275Z,7.90
2017-11-10T02:00:51.564Z,7.90
2017-11-10T02:01:54.823Z,7.90
2017-11-10T02:02:58.130Z,7.90
2017-11-10T02:04:01.400Z,7.90
2017-11-10T02:05:04.672Z,7.80
2017-11-10T02:06:07.483Z,7.90
2017-11-10T02:07:10.786Z,7.90
2017-11-10T02:08:13.317Z,7.80
2017-11-10T02:09:16.577Z,7.80
2017-11-10T02:10:19.896Z,7.80
2017-11-10T02:11:23.187Z,7.90
2017-11-10T02:12:26.458Z,7.90
2017-11-10T02:13:29.727Z,7.90
2017-11-10T02:14:32.371Z,7.90
2017-11-10T02:15:34.986Z,7.90
2017-11-10T02:16:38.334Z,7.90
2017-11-10T02:17:40.823Z,7.90
2017-11-10T02:18:44.319Z,7.90
2017-11-10T02:19:46.838Z,7.90
2017-11-10T02:20:50.419Z,7.90
2017-11-10T02:21:52.913Z,7.90
2017-11-10T02:22:56.256Z,7.90
2017-11-10T02:23:58.787Z,7.90
2017-11-10T02:25:01.355Z,7.90
2017-11-10T02:26:03.900Z,7.90
2017-11-10T02:27:06.579Z,7.90
2017-11-10T02:28:10.063Z,7.90
2017-11-10T02:29:14.484Z,7.90
2017-11-10T02:30:17.060Z,7.90
2017-11-10T02:31:20.032Z,7.90
2017-11-10T02:32:22.552Z,7.90
2017-11-10T02:33:25.047Z,7.90
2017-11-10T02:34:27.564Z,8.00
2017-11-10T02:35:30.080Z,8.00
2017-11-10T02:36:32.583Z,7.90
2017-11-10T02:37:36.036Z,8.00
2017-11-10T02:38:38.549Z,7.90
2017-11-10T02:39:41.074Z,8.00
2017-11-10T02:40:43.581Z,8.00
2017-11-10T02:41:46.911Z,8.00
2017-11-10T02:42:49.427Z,8.00
2017-11-10T02:43:52.160Z,8.00
2017-11-10T02:44:55.415Z,8.00
2017-11-10T02:45:58.005Z,7.90
2017-11-10T02:47:00.561Z,7.90
2017-11-10T02:48:04.021Z,8.00
2017-11-10T02:49:06.520Z,8.00
2017-11-10T02:50:09.008Z,8.00
2017-11-10T02:51:11.511Z,8.00
2017-11-10T02:52:14.239Z,8.00
2017-11-10T02:53:16.749Z,8.00
2017-11-10T02:54:19.354Z,8.00
2017-11-10T02:55:22.633Z,8.00
2017-11-10T02:56:25.401Z,7.90
2017-11-10T02:57:28.746Z,8.00
2017-11-10T02:58:31.267Z,8.00
2017-11-10T02:59:35.272Z,7.90
2017-11-10T03:00:37.935Z,8.00
2017-11-10T03:01:40.470Z,8.00
2017-11-10T03:02:44.744Z,8.00
2017-11-10T03:03:47.255Z,8.00
2017-11-10T03:04:49.823Z,7.90
2017-11-10T03:05:52.329Z,7.90
2017-11-10T03:06:55.774Z,8.00
2017-11-10T03:07:58.262Z,7.90
2017-11-10T03:09:01.732Z,7.90
2017-11-10T03:10:04.219Z,7.90
2017-11-10T03:11:06.781Z,7.90
2017-11-10T03:12:10.802Z,8.00
2017-11-10T03:13:14.246Z,7.90
2017-11-10T03:14:16.749Z,7.90
2017-11-10T03:15:20.227Z,8.00
2017-11-10T03:16:22.740Z,8.00
2017-11-10T03:17:25.570Z,8.00
2017-11-10T03:18:28.846Z,7.90
2017-11-10T03:19:31.525Z,7.90
2017-11-10T03:20:34.033Z,7.90
2017-11-10T03:21:37.797Z,7.90
2017-11-10T03:22:41.085Z,8.00
2017-11-10T03:23:44.642Z,7.90
2017-11-10T03:24:48.652Z,7.90
2017-11-10T03:25:53.367Z,7.90
2017-11-10T03:26:56.637Z,8.00
2017-11-10T03:27:59.334Z,7.90
2017-11-10T03:29:01.813Z,8.00
2017-11-10T03:30:05.280Z,8.00
2017-11-10T03:31:08.166Z,8.00
2017-11-10T03:32:13.680Z,7.90
2017-11-10T03:33:16.161Z,7.90
2017-11-10T03:34:20.543Z,8.00
2017-11-10T03:35:23.021Z,8.00
2017-11-10T03:36:25.575Z,8.00
2017-11-10T03:37:28.064Z,7.90
2017-11-10T03:38:30.604Z,8.00
2017-11-10T03:39:33.089Z,8.00
2017-11-10T03:40:36.573Z,8.00
2017-11-10T03:41:39.098Z,8.00
2017-11-10T03:42:41.899Z,8.00
2017-11-10T03:43:44.383Z,8.00
2017-11-10T03:44:46.910Z,8.00
2017-11-10T03:45:49.416Z,8.00
2017-11-10T03:46:53.487Z,8.00
2017-11-10T03:47:55.966Z,8.00
2017-11-10T03:48:58.533Z,8.00
2017-11-10T03:50:01.018Z,8.00
2017-11-10T03:51:04.471Z,8.00
2017-11-10T03:52:06.972Z,8.00
2017-11-10T03:53:09.513Z,8.00
2017-11-10T03:54:12.150Z,8.00
2017-11-10T03:55:14.853Z,8.00
2017-11-10T03:56:17.338Z,8.00
2017-11-10T03:57:20.794Z,8.00
2017-11-10T03:58:23.266Z,8.00
2017-11-10T03:59:25.824Z,8.00
2017-11-10T04:00:28.312Z,8.00
2017-11-10T04:01:30.865Z,8.00
2017-11-10T04:02:33.353Z,8.10
2017-11-10T04:03:36.806Z,8.10
2017-11-10T04:04:39.281Z,8.10
2017-11-10T04:05:41.822Z,8.10
2017-11-10T04:06:44.356Z,8.10
2017-11-10T04:07:47.785Z,8.10
2017-11-10T04:08:50.271Z,8.10
2017-11-10T04:09:52.828Z,8.10
2017-11-10T04:10:56.259Z,8.00
2017-11-10T04:11:59.736Z,8.00
2017-11-10T04:13:02.985Z,8.00
2017-11-10T04:14:05.673Z,8.00
2017-11-10T04:15:08.144Z,8.00
2017-11-10T04:16:10.695Z,8.00
2017-11-10T04:17:13.177Z,8.00
2017-11-10T04:18:16.657Z,8.00
2017-11-10T04:19:19.155Z,8.00
2017-11-10T04:20:22.592Z,8.00
2017-11-10T04:21:25.085Z,8.00
2017-11-10T04:22:29.478Z,8.00
2017-11-10T04:23:31.959Z,8.00
2017-11-10T04:24:34.502Z,8.00
2017-11-10T04:25:36.997Z,8.00
2017-11-10T04:26:40.446Z,8.10
2017-11-10T04:27:42.926Z,8.00
2017-11-10T04:28:45.495Z,8.00
2017-11-10T04:29:47.962Z,8.10
2017-11-10T04:30:50.562Z,8.00
2017-11-10T04:31:53.799Z,8.00
2017-11-10T04:32:56.460Z,8.00
2017-11-10T04:33:58.945Z,8.00
2017-11-10T04:35:01.494Z,8.00
2017-11-10T04:36:03.996Z,8.00
2017-11-10T04:37:07.449Z,8.10
2017-11-10T04:38:09.933Z,8.10
2017-11-10T04:39:13.417Z,8.10
2017-11-10T04:40:18.343Z,8.10
2017-11-10T04:41:20.928Z,8.10
2017-11-10T04:42:24.175Z,8.10
2017-11-10T04:43:28.097Z,8.10
2017-11-10T04:44:30.616Z,8.10
2017-11-10T04:45:33.407Z,8.20
2017-11-10T04:46:35.906Z,8.20
2017-11-10T04:47:39.352Z,8.20
2017-11-10T04:48:41.833Z,8.20
2017-11-10T04:49:44.391Z,8.20
2017-11-10T04:50:46.858Z,8.20
2017-11-10T04:51:50.633Z,8.20
2017-11-10T04:52:53.113Z,8.20
2017-11-10T04:53:55.700Z,8.20
2017-11-10T04:54:58.190Z,8.20
2017-11-10T04:56:01.641Z,8.20
2017-11-10T04:57:05.278Z,8.20
2017-11-10T04:58:08.859Z,8.20
2017-11-10T04:59:12.117Z,8.20
2017-11-10T05:00:14.770Z,8.20
2017-11-10T05:01:17.255Z,8.20
2017-11-10T05:02:20.409Z,8.20
2017-11-10T05:03:22.901Z,8.20
2017-11-10T05:04:27.388Z,8.20
2017-11-10T05:05:29.864Z,8.20
2017-11-10T05:06:32.638Z,8.20
2017-11-10T05:07:35.122Z,8.20
2017-11-10T05:08:39.230Z,8.20
2017-11-10T05:09:42.497Z,8.20
2017-11-10T05:10:46.707Z,8.20
2017-11-10T05:11:49.204Z,8.20
2017-11-10T05:12:52.637Z,8.20
2017-11-10T05:13:55.152Z,8.10
2017-11-10T05:14:57.679Z,8.20
2017-11-10T05:16:00.207Z,8.20
2017-11-10T05:17:03.034Z,8.20
2017-11-10T05:18:05.548Z,8.20
2017-11-10T05:19:08.379Z,8.20
2017-11-10T05:20:11.710Z,8.20
2017-11-10T05:21:14.353Z,8.20
2017-11-10T05:22:17.630Z,8.20
2017-11-10T05:23:21.177Z,8.20
2017-11-10T05:24:23.665Z,8.20
2017-11-10T05:25:26.205Z,8.30
2017-11-10T05:26:28.709Z,8.30
2017-11-10T05:27:31.253Z,8.30
2017-11-10T05:28:33.757Z,8.30
2017-11-10T05:29:37.197Z,8.30
2017-11-10T05:30:39.685Z,8.20
2017-11-10T05:31:42.255Z,8.30
2017-11-10T05:32:44.782Z,8.30
2017-11-10T05:33:47.561Z,8.30
2017-11-10T05:34:50.149Z,8.30
2017-11-10T05:35:52.889Z,8.30
2017-11-10T05:36:55.481Z,8.30
2017-11-10T05:37:58.896Z,8.30
2017-11-10T05:39:02.157Z,8.30
2017-11-10T05:40:05.434Z,8.30
2017-11-10T05:41:07.934Z,8.30
2017-11-10T05:42:11.440Z,8.30
2017-11-10T05:43:13.926Z,8.30
2017-11-10T05:44:16.722Z,8.30
2017-11-10T05:45:19.212Z,8.30
2017-11-10T05:46:21.766Z,8.40
2017-11-10T05:47:24.237Z,8.30
2017-11-10T05:48:26.811Z,8.30
2017-11-10T05:49:30.070Z,8.30
2017-11-10T05:50:32.723Z,8.30
2017-11-10T05:51:35.230Z,8.40
2017-11-10T05:52:37.758Z,8.40
2017-11-10T05:53:40.267Z,8.40
2017-11-10T05:54:43.715Z,8.40
2017-11-10T05:55:46.198Z,8.40
2017-11-10T05:56:50.298Z,8.40
2017-11-10T05:57:52.810Z,8.40
2017-11-10T05:58:55.363Z,8.40
2017-11-10T05:59:58.612Z,8.40
2017-11-10T06:01:12.814Z,8.40
2017-11-10T06:02:15.308Z,8.40
2017-11-10T06:03:17.981Z,8.40
2017-11-10T06:04:20.577Z,8.40
2017-11-10T06:05:23.928Z,8.40
2017-11-10T06:06:26.438Z,8.40
2017-11-10T06:07:28.992Z,8.40
2017-11-10T06:08:32.251Z,8.50
2017-11-10T06:09:34.919Z,8.50
2017-11-10T06:10:37.395Z,8.50
2017-11-10T06:11:40.858Z,8.50
2017-11-10T06:12:43.349Z,8.50
2017-11-10T06:13:45.941Z,8.50
2017-11-10T06:14:49.206Z,8.50
2017-11-10T06:15:51.847Z,8.50
2017-11-10T06:16:55.254Z,8.50
2017-11-10T06:17:58.506Z,8.60
2017-11-10T06:19:01.011Z,8.60
2017-11-10T06:20:03.778Z,8.60
2017-11-10T06:21:06.327Z,8.60
2017-11-10T06:22:09.106Z,8.60
2017-11-10T06:23:11.599Z,8.60
2017-11-10T06:24:15.075Z,8.60
2017-11-10T06:25:17.551Z,8.60
2017-11-10T06:26:21.026Z,8.60
2017-11-10T06:27:24.016Z,8.60
2017-11-10T06:28:28.326Z,8.60
2017-11-10T06:29:31.589Z,8.60
2017-11-10T06:30:34.161Z,8.60
2017-11-10T06:31:36.646Z,8.60
2017-11-10T06:32:40.114Z,8.60
2017-11-10T06:33:44.506Z,8.70
2017-11-10T06:34:47.273Z,8.60
2017-11-10T06:35:50.217Z,8.70
2017-11-10T06:36:52.903Z,8.70
2017-11-10T06:37:55.429Z,8.70
2017-11-10T06:38:58.906Z,8.70
2017-11-10T06:40:02.200Z,8.70
2017-11-10T06:41:05.747Z,8.70
2017-11-10T06:42:08.225Z,8.70
2017-11-10T06:43:10.789Z,8.70
2017-11-10T06:44:13.321Z,8.70
2017-11-10T06:45:16.124Z,8.70
2017-11-10T06:46:19.489Z,8.70
2017-11-10T06:47:22.082Z,8.70
2017-11-10T06:48:26.062Z,8.70
2017-11-10T06:49:28.663Z,8.70
2017-11-10T06:50:31.130Z,8.70
2017-11-10T06:51:33.645Z,8.50
2017-11-10T06:52:36.119Z,8.70
2017-11-10T06:53:38.709Z,8.70
2017-11-10T06:54:41.282Z,8.70
2017-11-10T06:55:44.060Z,8.80
2017-11-10T06:56:46.556Z,8.80
2017-11-10T06:57:49.051Z,8.80
2017-11-10T06:58:51.550Z,8.80
2017-11-10T06:59:54.094Z,8.70
2017-11-10T07:00:56.576Z,8.80
2017-11-10T07:02:00.057Z,8.80
2017-11-10T07:03:02.549Z,8.80
2017-11-10T07:04:05.090Z,8.80
2017-11-10T07:05:07.586Z,8.80
2017-11-10T07:06:11.058Z,8.80
2017-11-10T07:07:13.558Z,8.80
2017-11-10T07:08:16.086Z,8.80
2017-11-10T07:09:18.585Z,8.80
2017-11-10T07:10:22.345Z,8.80
2017-11-10T07:11:24.850Z,8.70
2017-11-10T07:12:27.386Z,8.80
2017-11-10T07:13:29.869Z,8.80
2017-11-10T07:14:33.325Z,8.80
2017-11-10T07:15:35.862Z,8.80
2017-11-10T07:16:38.648Z,8.80
2017-11-10T07:17:41.701Z,8.80
2017-11-10T07:18:44.303Z,8.80
2017-11-10T07:19:46.811Z,8.70
2017-11-10T07:20:50.278Z,8.70
2017-11-10T07:21:53.520Z,8.70
2017-11-10T07:22:56.226Z,8.70
2017-11-10T07:23:58.741Z,8.70
2017-11-10T07:25:01.268Z,8.80
2017-11-10T07:26:04.501Z,8.60
2017-11-10T07:27:07.181Z,8.60
2017-11-10T07:28:09.671Z,8.60
2017-11-10T07:29:12.234Z,8.60
2017-11-10T07:30:14.888Z,8.60
2017-11-10T07:31:17.560Z,8.60
2017-11-10T07:32:20.090Z,8.60
2017-11-10T07:33:22.595Z,8.60
2017-11-10T07:34:25.080Z,8.70
2017-11-10T07:35:27.649Z,8.60
2017-11-10T07:36:30.966Z,8.70
2017-11-10T07:37:33.556Z,8.60
2017-11-10T07:38:36.061Z,8.70
2017-11-10T07:39:38.598Z,8.70
2017-11-10T07:40:41.102Z,8.70
2017-11-10T07:41:44.557Z,8.70
2017-11-10T07:42:47.037Z,8.60
2017-11-10T07:43:49.581Z,8.70
2017-11-10T07:44:52.085Z,8.70
2017-11-10T07:45:54.645Z,8.80
2017-11-10T07:46:57.143Z,8.80
2017-11-10T07:47:59.637Z,8.80
2017-11-10T07:49:02.163Z,8.80
2017-11-10T07:50:05.788Z,8.90
2017-11-10T07:51:08.273Z,8.90
2017-11-10T07:52:11.881Z,8.90
2017-11-10T07:53:14.358Z,8.90
2017-11-10T07:54:17.595Z,8.90
2017-11-10T07:55:20.077Z,8.90
2017-11-10T07:56:22.867Z,8.90
2017-11-10T07:57:25.416Z,8.90
2017-11-10T07:58:28.184Z,9.00
2017-11-10T07:59:30.672Z,9.00
2017-11-10T08:00:33.206Z,8.90
2017-11-10T08:01:35.689Z,9.00
2017-11-10T08:02:38.273Z,9.00
2017-11-10T08:03:40.758Z,8.90
2017-11-10T08:04:44.005Z,8.90
2017-11-10T08:05:46.556Z,9.00
2017-11-10T08:06:49.086Z,9.00
2017-11-10T08:07:51.628Z,8.90
2017-11-10T08:08:54.878Z,9.00
2017-11-10T08:09:57.537Z,9.00
2017-11-10T08:11:00.026Z,8.90
2017-11-10T08:12:03.525Z,9.00
2017-11-10T08:13:06.080Z,8.90
2017-11-10T08:14:08.846Z,9.00
2017-11-10T08:15:11.330Z,9.00
2017-11-10T08:16:14.050Z,9.00
2017-11-10T08:17:16.672Z,9.00
2017-11-10T08:18:19.221Z,9.00
2017-11-10T08:19:23.211Z,9.00
2017-11-10T08:20:25.881Z,9.10
2017-11-10T08:21:28.381Z,9.10
2017-11-10T08:22:31.760Z,9.10
2017-11-10T08:23:34.394Z,9.10
2017-11-10T08:24:37.761Z,9.10
2017-11-10T08:25:43.204Z,9.10
2017-11-10T08:26:47.170Z,9.10
2017-11-10T08:27:52.364Z,9.20
2017-11-10T08:28:56.423Z,9.20
2017-11-10T08:30:00.879Z,9.20
2017-11-10T08:31:04.553Z,9.10
2017-11-10T08:32:07.101Z,9.10
2017-11-10T08:33:09.854Z,9.10
2017-11-10T08:34:12.484Z,9.10
2017-11-10T08:35:15.124Z,9.20
2017-11-10T08:36:17.616Z,9.20
2017-11-10T08:37:20.149Z,9.20
2017-11-10T08:38:22.691Z,9.20
2017-11-10T08:39:25.217Z,9.20
2017-11-10T08:40:27.692Z,9.20
2017-11-10T08:41:31.174Z,9.20
2017-11-10T08:42:34.478Z,9.20
2017-11-10T08:43:37.088Z,9.20
2017-11-10T08:44:39.594Z,9.20
2017-11-10T08:45:43.047Z,9.20
2017-11-10T08:46:45.564Z,9.20
2017-11-10T08:47:48.083Z,9.20
2017-11-10T08:48:50.594Z,9.20
2017-11-10T08:49:54.057Z,9.10
2017-11-10T08:50:56.542Z,9.10
2017-11-10T08:51:59.977Z,9.20
2017-11-10T08:53:02.469Z,9.20
2017-11-10T08:54:06.190Z,9.20
2017-11-10T08:55:08.736Z,9.20
2017-11-10T08:56:11.308Z,9.20
2017-11-10T08:57:14.607Z,9.30
2017-11-10T08:58:17.860Z,9.20
2017-11-10T08:59:20.404Z,9.20
2017-11-10T09:00:24.103Z,9.20
2017-11-10T09:01:26.593Z,9.20
2017-11-10T09:02:30.139Z,9.20
2017-11-10T09:03:33.207Z,9.20
2017-11-10T09:04:35.739Z,9.30
2017-11-10T09:05:38.993Z,9.30
2017-11-10T09:06:41.651Z,9.30
2017-11-10T09:07:44.149Z,9.30
2017-11-10T09:08:46.722Z,9.30
2017-11-10T09:09:50.108Z,9.40
2017-11-10T09:10:53.557Z,9.40
2017-11-10T09:11:56.604Z,9.40
2017-11-10T09:12:59.277Z,9.40
2017-11-10T09:14:01.751Z,9.40
2017-11-10T09:15:05.062Z,9.40
2017-11-10T09:16:07.546Z,9.50
2017-11-10T09:17:10.200Z,9.50
2017-11-10T09:18:12.683Z,9.50
2017-11-10T09:19:16.077Z,9.60
2017-11-10T09:20:19.454Z,9.60
2017-11-10T09:21:24.591Z,9.60
2017-11-10T09:22:28.688Z,9.60
2017-11-10T09:23:31.930Z,9.50
2017-11-10T09:24:34.402Z,9.50
2017-11-10T09:25:36.896Z,9.60
2017-11-10T09:26:39.441Z,9.60
2017-11-10T09:27:41.942Z,9.60
2017-11-10T09:30:39.484Z,9.60
2017-11-10T09:31:45.796Z,9.60
2017-11-10T09:32:55.177Z,9.60
2017-11-10T09:34:21.789Z,9.60
2017-11-10T09:35:40.054Z,9.60
2017-11-10T09:36:48.936Z,9.60
2017-11-10T09:37:58.228Z,9.60
2017-11-10T09:40:42.123Z,9.60
2017-11-10T09:42:02.647Z,9.60
2017-11-10T09:43:05.164Z,9.60
2017-11-10T09:44:08.755Z,9.60
2017-11-10T09:45:24.976Z,9.70
2017-11-10T09:46:33.154Z,9.70
2017-11-10T09:47:42.069Z,9.70
2017-11-10T09:48:50.130Z,9.60
2017-11-10T09:51:40.399Z,9.60
2017-11-10T09:52:46.765Z,9.60
2017-11-10T09:53:54.895Z,9.60
2017-11-10T09:54:59.359Z,9.60
2017-11-10T09:56:17.184Z,9.60
2017-11-10T09:57:25.645Z,9.60
2017-11-10T09:58:30.862Z,9.50
2017-11-10T09:59:33.602Z,9.50
2017-11-10T10:00:37.042Z,9.50
2017-11-10T10:01:46.544Z,9.50
2017-11-10T10:02:59.932Z,9.50
2017-11-10T10:04:08.183Z,9.50
2017-11-10T10:05:18.269Z,9.60
2017-11-10T10:06:29.704Z,9.60
2017-11-10T10:07:37.989Z,9.60
2017-11-10T10:10:21.829Z,9.60
2017-11-10T10:11:41.330Z,9.60
2017-11-10T10:13:03.375Z,9.70
2017-11-10T10:15:51.162Z,9.60
2017-11-10T10:18:50.246Z,9.60
2017-11-10T10:19:56.693Z,9.60
2017-11-10T10:21:11.085Z,9.60
2017-11-10T10:22:33.542Z,9.60
2017-11-10T10:23:36.040Z,9.50
2017-11-10T10:24:38.517Z,9.60
2017-11-10T10:25:41.698Z,9.60
2017-11-10T10:26:44.396Z,9.60
2017-11-10T10:27:48.641Z,9.70
2017-11-10T10:28:51.542Z,9.60
2017-11-10T10:29:54.057Z,9.70
2017-11-10T10:30:56.700Z,9.60
2017-11-10T10:31:59.945Z,9.70
2017-11-10T10:33:03.596Z,9.60
2017-11-10T10:34:06.955Z,9.70
2017-11-10T10:35:10.461Z,9.70
2017-11-10T10:36:13.789Z,9.80
2017-11-10T10:37:17.217Z,9.70
2017-11-10T10:38:19.733Z,9.80
2017-11-10T10:39:22.360Z,9.80
2017-11-10T10:40:25.605Z,9.80
2017-11-10T10:41:28.275Z,9.80
2017-11-10T10:42:30.760Z,9.90
2017-11-10T10:43:33.325Z,9.90
2017-11-10T10:44:35.823Z,9.90
2017-11-10T10:45:39.261Z,9.90
2017-11-10T10:46:41.740Z,9.90
2017-11-10T10:47:44.280Z,9.90
2017-11-10T10:48:46.789Z,9.90
2017-11-10T10:49:50.581Z,9.90
2017-11-10T10:50:53.073Z,9.90
2017-11-10T10:51:55.696Z,10.00
2017-11-10T10:52:58.203Z,10.00
2017-11-10T10:54:00.926Z,10.00
2017-11-10T10:55:03.435Z,10.10
2017-11-10T10:56:06.071Z,10.10
2017-11-10T10:57:08.578Z,10.10
2017-11-10T10:58:11.389Z,10.20
2017-11-10T10:59:13.911Z,10.20
2017-11-10T11:00:16.730Z,10.30
2017-11-10T11:01:19.480Z,10.30
2017-11-10T11:02:22.094Z,10.30
2017-11-10T11:03:24.654Z,10.30
2017-11-10T11:04:27.445Z,10.40
2017-11-10T11:05:30.783Z,10.50
2017-11-10T11:06:33.428Z,10.50
2017-11-10T11:07:36.207Z,10.50
2017-11-10T11:08:39.981Z,10.50
2017-11-10T11:09:42.486Z,10.50
2017-11-10T11:10:45.334Z,10.50
2017-11-10T11:11:47.856Z,10.50
2017-11-10T11:12:50.629Z,10.50
2017-11-10T11:13:53.117Z,10.50
2017-11-10T11:14:57.558Z,10.50
2017-11-10T11:16:00.096Z,10.50
2017-11-10T11:17:02.885Z,10.40
2017-11-10T11:18:05.386Z,10.40
2017-11-10T11:19:08.161Z,10.40
2017-11-10T11:20:10.650Z,10.40
2017-11-10T11:21:14.057Z,10.40
2017-11-10T11:22:17.314Z,10.40
2017-11-10T11:23:20.142Z,10.40
2017-11-10T11:24:22.664Z,10.40
2017-11-10T11:25:26.357Z,10.40
2017-11-10T11:26:29.630Z,10.40
2017-11-10T11:27:32.291Z,10.40
2017-11-10T11:28:34.822Z,10.40
2017-11-10T11:29:37.540Z,10.30
2017-11-10T11:30:40.042Z,10.30
2017-11-10T11:31:43.513Z,10.30
2017-11-10T11:32:46.023Z,10.30
2017-11-10T11:33:48.563Z,10.30
2017-11-10T11:34:51.828Z,10.30
2017-11-10T11:35:54.474Z,10.30
2017-11-10T11:36:56.996Z,10.20
2017-11-10T11:37:59.498Z,10.20
2017-11-10T11:39:02.018Z,10.20
2017-11-10T11:40:05.543Z,10.20
2017-11-10T11:41:08.024Z,10.20
2017-11-10T11:42:12.315Z,10.20
2017-11-10T11:43:14.819Z,10.20
2017-11-10T11:44:17.367Z,10.20
2017-11-10T11:45:20.408Z,10.20
2017-11-10T11:46:24.041Z,10.30
2017-11-10T11:47:26.557Z,10.30
2017-11-10T11:48:29.268Z,10.30
2017-11-10T11:49:31.761Z,10.40
2017-11-10T11:50:34.329Z,10.40
2017-11-10T11:51:37.599Z,10.60
2017-11-10T11:52:40.300Z,10.50
2017-11-10T11:53:43.592Z,10.60
2017-11-10T11:54:46.224Z,10.60
2017-11-10T11:55:49.535Z,10.60
2017-11-10T11:56:52.842Z,10.60
2017-11-10T11:57:55.339Z,10.60
2017-11-10T11:58:59.051Z,10.60
2017-11-10T12:00:01.559Z,10.60
2017-11-10T12:01:04.093Z,10.60
2017-11-10T12:02:06.602Z,10.50
2017-11-10T12:03:09.132Z,10.60
2017-11-10T12:04:12.389Z,10.60
2017-11-10T12:05:15.167Z,10.50
2017-11-10T12:06:17.706Z,10.60
2017-11-10T12:07:20.199Z,10.60
2017-11-10T12:08:22.689Z,10.60
2017-11-10T12:09:25.335Z,10.60
2017-11-10T12:10:28.842Z,10.60
2017-11-10T12:11:32.102Z,10.70
2017-11-10T12:12:36.317Z,10.70
2017-11-10T12:13:39.590Z,10.70
2017-11-10T12:14:42.257Z,10.70
2017-11-10T12:15:44.749Z,10.80
2017-11-10T12:16:48.197Z,10.90
2017-11-10T12:17:50.723Z,10.90
2017-11-10T12:18:53.565Z,10.80
2017-11-10T12:19:56.062Z,10.80
2017-11-10T12:20:58.913Z,10.80
2017-11-10T12:22:02.199Z,10.80
2017-11-10T12:23:08.032Z,10.80
2017-11-10T12:24:10.510Z,10.80
2017-11-10T12:25:13.926Z,10.70
2017-11-10T12:26:17.679Z,10.70
2017-11-10T12:27:21.001Z,10.70
2017-11-10T12:28:23.597Z,10.70
2017-11-10T12:29:26.133Z,10.70
2017-11-10T12:30:28.741Z,10.70
2017-11-10T12:31:31.266Z,10.70
2017-11-10T12:32:34.246Z,10.60
2017-11-10T12:33:36.747Z,10.60
2017-11-10T12:34:39.516Z,10.50
2017-11-10T12:35:43.338Z,10.50
2017-11-10T12:36:46.002Z,10.50
2017-11-10T12:37:48.505Z,10.40
2017-11-10T12:38:53.232Z,10.40
2017-11-10T12:39:55.757Z,10.30
2017-11-10T12:40:58.501Z,10.20
2017-11-10T12:42:01.033Z,10.20
2017-11-10T12:43:05.117Z,10.10
2017-11-10T12:44:08.584Z,10.00
2017-11-10T12:45:12.015Z,10.00
2017-11-10T12:46:14.514Z,10.00
2017-11-10T12:47:20.061Z,10.00
2017-11-10T12:48:22.734Z,10.00
2017-11-10T12:49:26.462Z,10.00
2017-11-10T12:50:29.532Z,10.00
2017-11-10T12:51:32.903Z,10.00
2017-11-10T12:52:35.570Z,10.00
2017-11-10T12:53:38.246Z,10.00
2017-11-10T12:54:42.063Z,10.00
2017-11-10T12:55:45.328Z,10.00
2017-11-10T12:56:47.872Z,10.00
2017-11-10T12:57:50.688Z,10.00
2017-11-10T12:58:53.985Z,10.00
2017-11-10T12:59:56.837Z,10.00
2017-11-10T13:00:59.366Z,10.10
2017-11-10T13:02:01.944Z,10.10
2017-11-10T13:03:04.429Z,10.10
2017-11-10T13:04:06.994Z,10.10
2017-11-10T13:05:09.530Z,10.10
2017-11-10T13:06:12.033Z,10.10
2017-11-10T13:07:14.554Z,10.10
2017-11-10T13:08:17.090Z,10.20
2017-11-10T13:09:19.595Z,10.20
2017-11-10T13:10:22.263Z,10.20
2017-11-10T13:11:24.768Z,10.20
2017-11-10T13:12:27.437Z,10.20
2017-11-10T13:13:31.737Z,10.30
2017-11-10T13:14:34.347Z,10.30
2017-11-10T13:15:37.470Z,10.30
2017-11-10T13:16:41.181Z,10.30
2017-11-10T13:17:43.698Z,10.30
2017-11-10T13:18:47.478Z,10.40
2017-11-10T13:19:50.329Z,10.30
2017-11-10T13:20:54.682Z,10.30
2017-11-10T13:21:58.114Z,10.40
2017-11-10T13:23:00.631Z,10.30
2017-11-10T13:24:03.188Z,10.40
2017-11-10T13:25:06.081Z,10.40
2017-11-10T13:26:08.648Z,10.40
2017-11-10T13:27:11.978Z,10.40
2017-11-10T13:28:15.484Z,10.40
2017-11-10T13:29:19.007Z,10.40
2017-11-10T13:30:21.786Z,10.40
2017-11-10T13:31:24.318Z,10.40
2017-11-10T13:32:28.005Z,10.40
2017-11-10T13:33:32.530Z,10.30
2017-11-10T13:34:36.244Z,10.30
2017-11-10T13:35:38.852Z,10.30
2017-11-10T13:36:42.690Z,10.30
2017-11-10T13:37:45.246Z,10.30
2017-11-10T13:38:49.754Z,10.30
2017-11-10T13:39:53.039Z,10.30
2017-11-10T13:40:59.760Z,10.30
2017-11-10T13:42:04.052Z,10.30
2017-11-10T13:43:06.709Z,10.30
2017-11-10T13:44:10.049Z,10.30
2017-11-10T13:45:14.372Z,10.30
2017-11-10T13:46:17.679Z,10.30
2017-11-10T13:47:20.437Z,10.20
2017-11-10T13:48:23.126Z,10.30
2017-11-10T13:49:26.539Z,10.30
2017-11-10T13:50:29.201Z,10.30
2017-11-10T13:51:32.922Z,10.30
2017-11-10T13:52:36.381Z,10.30
2017-11-10T13:53:38.963Z,10.30
2017-11-10T13:54:41.600Z,10.30
2017-11-10T13:55:44.235Z,10.30
2017-11-10T13:56:47.499Z,10.30
2017-11-10T13:57:51.247Z,10.20
2017-11-10T13:58:57.353Z,10.30
2017-11-10T14:00:00.169Z,10.30
2017-11-10T14:01:03.337Z,10.20
2017-11-10T14:02:06.659Z,10.30
2017-11-10T14:03:09.400Z,10.30
2017-11-10T14:04:12.946Z,10.20
2017-11-10T14:05:16.228Z,10.10
2017-11-10T14:06:18.728Z,10.10